createdAt,value
2023-08-11T00:02:09.036Z,10.96
2023-08-11T00:04:36.687Z,10.95
2023-08-11T00:07:05.323Z,10.93
2023-08-11T00:09:33.412Z,10.90
2023-08-11T00:12:01.019Z,10.86
2023-08-11T00:14:28.734Z,10.79
2023-08-11T00:16:57.312Z,10.75
2023-08-11T00:19:27.231Z,10.64
2023-08-11T00:21:54.851Z,10.62
2023-08-11T00:24:22.542Z,10.64
2023-08-11T00:26:50.138Z,10.69
2023-08-11T00:29:18.614Z,10.63
2023-08-11T00:31:46.819Z,10.55
2023-08-11T00:34:14.527Z,10.40
2023-08-11T00:36:43.658Z,10.38
2023-08-11T00:39:11.263Z,10.22
2023-08-11T00:41:38.898Z,10.24
2023-08-11T00:44:06.987Z,10.11
2023-08-11T00:46:34.793Z,10.17
2023-08-11T00:49:02.504Z,10.15
2023-08-11T00:51:30.358Z,10.13
2023-08-11T00:54:00.530Z,10.12
2023-08-11T00:56:28.606Z,10.11
2023-08-11T00:58:56.842Z,10.11
2023-08-11T01:01:25.647Z,10.11
2023-08-11T01:03:53.318Z,10.06
2023-08-11T01:06:27.141Z,10.04
2023-08-11T01:09:01.550Z,10.04
2023-08-11T01:11:35.632Z,10.01
2023-08-11T01:14:06.049Z,10.05
2023-08-11T01:16:35.068Z,10.02
2023-08-11T01:19:05.443Z,9.99
2023-08-11T01:21:35.652Z,9.93
2023-08-11T01:24:06.032Z,9.91
2023-08-11T01:26:35.104Z,9.95
2023-08-11T01:29:02.841Z,10.01
2023-08-11T01:31:30.432Z,10.03
2023-08-11T01:33:58.145Z,9.95
2023-08-11T01:36:26.337Z,9.96
2023-08-11T01:38:54.137Z,9.94
2023-08-11T01:41:23.145Z,9.86
2023-08-11T01:43:52.266Z,9.95
2023-08-11T01:46:20.265Z,9.97
2023-08-11T01:48:48.138Z,9.91
2023-08-11T01:51:15.791Z,9.87
2023-08-11T01:53:43.684Z,9.79
2023-08-11T01:56:11.336Z,9.73
2023-08-11T01:58:40.488Z,9.73
2023-08-11T02:01:08.793Z,9.74
2023-08-11T02:03:36.449Z,9.65
2023-08-11T02:06:04.064Z,9.64
2023-08-11T02:08:33.031Z,9.63
2023-08-11T02:11:00.912Z,9.68
2023-08-11T02:13:30.001Z,9.69
2023-08-11T02:15:58.974Z,9.72
2023-08-11T02:18:29.832Z,9.70
2023-08-11T02:20:57.503Z,9.70
2023-08-11T02:23:25.193Z,9.69
2023-08-11T02:25:52.843Z,9.70
2023-08-11T02:28:20.441Z,9.66
2023-08-11T02:30:48.386Z,9.60
2023-08-11T02:33:19.471Z,9.55
2023-08-11T02:35:47.277Z,9.53
2023-08-11T02:38:15.770Z,9.53
2023-08-11T02:40:43.814Z,9.49
2023-08-11T02:43:11.453Z,9.42
2023-08-11T02:45:39.218Z,9.38
2023-08-11T02:48:07.529Z,9.40
2023-08-11T02:50:36.635Z,9.41
2023-08-11T02:53:05.690Z,9.38
2023-08-11T02:55:33.341Z,9.44
2023-08-11T02:58:00.970Z,9.45
2023-08-11T03:00:29.920Z,9.44
2023-08-11T03:02:58.009Z,9.44
2023-08-11T03:05:25.994Z,9.44
2023-08-11T03:07:54.953Z,9.38
2023-08-11T03:10:22.556Z,9.33
2023-08-11T03:12:50.179Z,9.33
2023-08-11T03:15:18.249Z,9.25
2023-08-11T03:17:45.893Z,9.21
2023-08-11T03:20:14.742Z,9.24
2023-08-11T03:22:43.178Z,9.22
2023-08-11T03:25:13.100Z,9.21
2023-08-11T03:27:43.362Z,9.23
2023-08-11T03:30:12.867Z,9.21
2023-08-11T03:32:41.525Z,9.17
2023-08-11T03:35:09.918Z,9.14
2023-08-11T03:37:37.611Z,9.11
2023-08-11T03:40:07.134Z,9.08
2023-08-11T03:42:36.134Z,9.04
2023-08-11T03:45:03.981Z,9.00
2023-08-11T03:47:31.642Z,9.03
2023-08-11T03:49:59.479Z,9.04
2023-08-11T03:52:27.084Z,9.00
2023-08-11T03:54:54.708Z,8.93
2023-08-11T03:57:22.495Z,8.92
2023-08-11T03:59:51.497Z,8.91
2023-08-11T04:02:19.113Z,8.89
2023-08-11T04:04:47.015Z,8.97
2023-08-11T04:07:14.652Z,9.00
2023-08-11T04:09:45.182Z,8.97
2023-08-11T04:12:12.950Z,8.83
2023-08-11T04:14:40.633Z,8.91
2023-08-11T04:17:09.634Z,8.85
2023-08-11T04:19:37.222Z,8.86
2023-08-11T04:22:06.465Z,8.87
2023-08-11T04:24:34.559Z,8.91
2023-08-11T04:27:02.154Z,8.98
2023-08-11T04:29:29.839Z,8.98
2023-08-11T04:31:57.475Z,8.99
2023-08-11T04:34:26.475Z,8.99
2023-08-11T04:36:54.768Z,9.03
2023-08-11T04:39:22.737Z,9.13
2023-08-11T04:41:51.029Z,9.21
2023-08-11T04:44:18.691Z,9.19
2023-08-11T04:46:46.304Z,9.25
2023-08-11T04:49:13.923Z,9.37
2023-08-11T04:51:43.850Z,9.50
2023-08-11T04:54:12.883Z,9.60
2023-08-11T04:56:40.482Z,9.70
2023-08-11T04:59:08.441Z,9.79
2023-08-11T05:01:36.123Z,9.92
2023-08-11T05:04:05.710Z,10.08
2023-08-11T05:06:33.684Z,10.25
2023-08-11T05:09:03.926Z,10.38
2023-08-11T05:11:32.020Z,10.45
2023-08-11T05:13:59.642Z,10.59
2023-08-11T05:16:27.534Z,10.74
2023-08-11T05:18:55.284Z,10.63
2023-08-11T05:21:24.122Z,10.71
2023-08-11T05:23:52.203Z,10.95
2023-08-11T05:26:21.163Z,11.07
2023-08-11T05:28:48.742Z,11.09
2023-08-11T05:31:16.378Z,11.21
2023-08-11T05:33:44.003Z,11.37
2023-08-11T05:36:11.675Z,11.41
2023-08-11T05:38:39.835Z,11.63
2023-08-11T05:41:07.451Z,11.68
2023-08-11T05:43:37.480Z,11.73
2023-08-11T05:46:07.957Z,12.08
2023-08-11T05:48:37.086Z,12.12
2023-08-11T05:51:05.379Z,12.40
2023-08-11T05:53:36.002Z,12.44
2023-08-11T05:56:03.646Z,12.53
2023-08-11T05:58:31.744Z,12.63
2023-08-11T06:01:02.229Z,12.90
2023-08-11T06:03:32.066Z,12.92
2023-08-11T06:06:05.358Z,13.34
2023-08-11T06:08:33.172Z,13.52
2023-08-11T06:11:00.751Z,13.48
2023-08-11T06:13:29.382Z,13.53
2023-08-11T06:15:57.220Z,13.66
2023-08-11T06:18:26.254Z,13.94
2023-08-11T06:20:54.398Z,13.81
2023-08-11T06:23:22.178Z,13.97
2023-08-11T06:25:50.125Z,14.10
2023-08-11T06:28:18.665Z,14.02
2023-08-11T06:30:46.394Z,14.29
2023-08-11T06:33:14.007Z,14.42
2023-08-11T06:35:43.479Z,14.58
2023-08-11T06:38:11.342Z,14.71
2023-08-11T06:40:39.904Z,14.96
2023-08-11T06:43:08.159Z,15.02
2023-08-11T06:45:35.859Z,15.08
2023-08-11T06:48:03.678Z,15.15
2023-08-11T06:50:31.428Z,15.33
2023-08-11T06:53:00.753Z,15.53
2023-08-11T06:55:28.477Z,15.59
2023-08-11T06:57:56.146Z,15.73
2023-08-11T07:00:24.740Z,15.91
2023-08-11T07:02:52.617Z,16.00
2023-08-11T07:05:20.575Z,16.05
2023-08-11T07:07:48.260Z,16.19
2023-08-11T07:10:17.424Z,16.29
2023-08-11T07:12:45.092Z,16.42
2023-08-11T07:15:12.787Z,16.45
2023-08-11T07:17:40.608Z,16.47
2023-08-11T07:20:09.325Z,16.51
2023-08-11T07:22:36.954Z,16.61
2023-08-11T07:25:05.255Z,16.64
2023-08-11T07:27:34.216Z,16.90
2023-08-11T07:30:01.934Z,16.92
2023-08-11T07:32:29.653Z,17.16
2023-08-11T07:34:57.330Z,17.30
2023-08-11T07:37:24.998Z,17.41
2023-08-11T07:39:52.629Z,17.43
2023-08-11T07:42:20.270Z,17.69
2023-08-11T07:44:49.225Z,17.79
2023-08-11T07:47:16.794Z,17.62
2023-08-11T07:49:44.395Z,17.73
2023-08-11T07:52:12.022Z,17.84
2023-08-11T07:54:39.917Z,18.11
2023-08-11T07:57:07.882Z,18.28
2023-08-11T07:59:36.043Z,18.34
2023-08-11T08:02:06.543Z,18.33
2023-08-11T08:04:34.212Z,18.52
2023-08-11T08:07:01.924Z,18.70
2023-08-11T08:09:30.173Z,18.94
2023-08-11T08:11:57.906Z,18.83
2023-08-11T08:14:25.586Z,19.05
2023-08-11T08:16:53.383Z,19.35
2023-08-11T08:19:23.063Z,19.33
2023-08-11T08:21:50.706Z,19.24
2023-08-11T08:24:18.439Z,19.31
2023-08-11T08:26:48.998Z,19.54
2023-08-11T08:29:16.640Z,19.48
2023-08-11T08:31:44.416Z,19.65
2023-08-11T08:34:12.225Z,19.54
2023-08-11T08:36:41.323Z,19.59
2023-08-11T08:39:09.776Z,19.80
2023-08-11T08:41:40.225Z,19.93
2023-08-11T08:44:08.159Z,19.83
2023-08-11T08:46:36.237Z,20.14
2023-08-11T08:49:11.876Z,20.03
2023-08-11T08:51:41.939Z,20.12
2023-08-11T08:54:11.023Z,20.45
2023-08-11T08:56:39.495Z,20.58
2023-08-11T08:59:07.752Z,20.61
2023-08-11T09:01:36.894Z,20.65
2023-08-11T09:04:05.705Z,20.80
2023-08-11T09:06:33.823Z,20.68
2023-08-11T09:09:03.140Z,21.02
2023-08-11T09:11:31.214Z,20.92
2023-08-11T09:14:03.801Z,21.13
2023-08-11T09:16:33.173Z,21.29
2023-08-11T09:19:01.053Z,21.12
2023-08-11T09:21:29.001Z,21.38
2023-08-11T09:23:57.724Z,21.36
2023-08-11T09:26:26.677Z,21.67
2023-08-11T09:28:55.768Z,21.66
2023-08-11T09:31:23.667Z,21.73
2023-08-11T09:33:51.315Z,21.68
